createdAt,value
2018-08-21T00:00:51.064Z,20.61
2018-08-21T00:01:51.053Z,20.56
2018-08-21T00:02:51.145Z,20.54
2018-08-21T00:03:51.037Z,20.48
2018-08-21T00:04:51.029Z,20.46
2018-08-21T00:05:51.021Z,20.46
2018-08-21T00:06:51.013Z,20.41
2018-08-21T00:07:51.005Z,20.57
2018-08-21T00:08:50.998Z,20.44
2018-08-21T00:09:50.988Z,20.46
2018-08-21T00:10:50.982Z,20.48
2018-08-21T00:11:50.973Z,20.41
2018-08-21T00:12:50.965Z,20.37
2018-08-21T00:13:50.955Z,20.42
2018-08-21T00:14:51.048Z,20.50
2018-08-21T00:15:50.940Z,20.38
2018-08-21T00:16:50.934Z,20.40
2018-08-21T00:17:50.923Z,20.20
2018-08-21T00:18:50.915Z,20.16
2018-08-21T00:19:50.908Z,20.22
2018-08-21T00:20:50.900Z,20.12
2018-08-21T00:21:50.899Z,20.16
2018-08-21T00:22:50.885Z,20.17
2018-08-21T00:23:50.882Z,20.13
2018-08-21T00:24:50.871Z,20.07
2018-08-21T00:25:50.861Z,20.04
2018-08-21T00:26:50.853Z,20.07
2018-08-21T00:27:50.846Z,20.00
2018-08-21T00:28:50.837Z,20.04
2018-08-21T00:29:50.828Z,20.05
2018-08-21T00:30:50.819Z,19.95
2018-08-21T00:31:50.811Z,19.80
2018-08-21T00:32:50.801Z,19.86
2018-08-21T00:33:50.798Z,19.79
2018-08-21T00:34:50.788Z,19.86
2018-08-21T00:35:50.777Z,19.86
2018-08-21T00:36:50.769Z,19.80
2018-08-21T00:37:50.759Z,19.78
2018-08-21T00:38:50.751Z,19.71
2018-08-21T00:39:50.743Z,19.62
2018-08-21T00:40:50.734Z,19.55
2018-08-21T00:41:50.725Z,19.55
2018-08-21T00:42:50.717Z,19.46
2018-08-21T00:43:50.708Z,19.40
2018-08-21T00:44:50.699Z,19.46
2018-08-21T00:45:50.691Z,19.45
2018-08-21T00:46:50.681Z,19.46
2018-08-21T00:47:50.672Z,19.47
2018-08-21T00:48:50.664Z,19.47
2018-08-21T00:49:50.654Z,19.50
2018-08-21T00:50:50.644Z,19.45
2018-08-21T00:51:50.639Z,19.42
2018-08-21T00:52:50.630Z,19.46
2018-08-21T00:53:50.619Z,19.35
2018-08-21T00:54:50.815Z,19.35
2018-08-21T00:55:50.599Z,19.16
2018-08-21T00:56:50.692Z,19.17
2018-08-21T00:57:50.584Z,19.13
2018-08-21T00:58:50.573Z,19.09
2018-08-21T00:59:50.565Z,18.97
2018-08-21T01:00:50.556Z,18.96
2018-08-21T01:01:50.547Z,18.87
2018-08-21T01:02:50.638Z,18.93
2018-08-21T01:03:50.528Z,18.96
2018-08-21T01:04:50.519Z,18.91
2018-08-21T01:05:50.510Z,18.89
2018-08-21T01:06:50.500Z,18.90
2018-08-21T01:07:50.490Z,18.87
2018-08-21T01:08:50.482Z,18.83
2018-08-21T01:09:50.472Z,18.84
2018-08-21T01:10:50.462Z,18.82
2018-08-21T01:11:50.453Z,18.89
2018-08-21T01:12:50.446Z,18.90
2018-08-21T01:13:50.434Z,18.90
2018-08-21T01:14:50.425Z,18.91
2018-08-21T01:15:50.416Z,18.91
2018-08-21T01:16:50.409Z,18.90
2018-08-21T01:17:50.396Z,18.84
2018-08-21T01:18:50.387Z,18.89
2018-08-21T01:19:50.379Z,18.86
2018-08-21T01:20:50.470Z,18.82
2018-08-21T01:21:50.359Z,18.84
2018-08-21T01:22:50.352Z,18.86
2018-08-21T01:23:50.341Z,18.84
2018-08-21T01:24:50.332Z,18.91
2018-08-21T01:25:50.321Z,18.71
2018-08-21T01:26:50.315Z,18.68
2018-08-21T01:27:50.305Z,18.71
2018-08-21T01:28:50.295Z,18.75
2018-08-21T01:29:50.283Z,18.83
2018-08-21T01:30:50.275Z,18.69
2018-08-21T01:31:50.266Z,18.71
2018-08-21T01:32:50.256Z,18.71
2018-08-21T01:33:50.247Z,18.74
2018-08-21T01:34:50.237Z,18.59
2018-08-21T01:35:50.229Z,18.53
2018-08-21T01:36:50.219Z,18.46
2018-08-21T01:37:50.208Z,18.51
2018-08-21T01:38:50.302Z,18.36
2018-08-21T01:39:50.191Z,18.47
2018-08-21T01:40:50.183Z,18.35
2018-08-21T01:41:50.171Z,18.39
2018-08-21T01:42:50.162Z,18.28
2018-08-21T01:43:50.152Z,18.38
2018-08-21T01:44:50.143Z,18.39
2018-08-21T01:45:50.132Z,18.41
2018-08-21T01:46:50.124Z,18.46
2018-08-21T01:47:50.114Z,18.50
2018-08-21T01:48:50.105Z,18.36
2018-08-21T01:49:50.094Z,18.41
2018-08-21T01:50:50.085Z,18.46
2018-08-21T01:51:50.076Z,18.35
2018-08-21T01:52:50.065Z,18.41
2018-08-21T01:53:50.056Z,18.38
2018-08-21T01:54:50.045Z,18.39
2018-08-21T01:55:50.040Z,18.46
2018-08-21T01:56:50.128Z,18.44
2018-08-21T01:57:50.017Z,18.32
2018-08-21T01:58:50.006Z,18.36
2018-08-21T01:59:50.001Z,18.39
2018-08-21T02:00:49.988Z,18.34
2018-08-21T02:01:49.978Z,18.34
2018-08-21T02:02:49.969Z,18.32
2018-08-21T02:03:49.959Z,18.36
2018-08-21T02:04:49.954Z,18.38
2018-08-21T02:05:49.943Z,18.35
2018-08-21T02:06:49.931Z,18.39
2018-08-21T02:07:49.921Z,18.35
2018-08-21T02:08:49.911Z,18.38
2018-08-21T02:09:49.903Z,18.42
2018-08-21T02:10:49.891Z,18.28
2018-08-21T02:11:49.882Z,18.39
2018-08-21T02:12:49.876Z,18.39
2018-08-21T02:13:49.862Z,18.35
2018-08-21T02:14:49.853Z,18.32
2018-08-21T02:15:49.843Z,18.35
2018-08-21T02:16:49.833Z,18.31
2018-08-21T02:17:49.823Z,18.35
2018-08-21T02:18:49.814Z,18.42
2018-08-21T02:19:49.806Z,18.31
2018-08-21T02:20:49.795Z,18.26
2018-08-21T02:21:49.784Z,18.25
2018-08-21T02:22:49.774Z,18.17
2018-08-21T02:23:49.765Z,18.13
2018-08-21T02:24:49.756Z,17.96
2018-08-21T02:25:49.745Z,17.98
2018-08-21T02:26:49.735Z,17.95
2018-08-21T02:27:49.726Z,18.01
2018-08-21T02:28:49.720Z,17.89
2018-08-21T02:29:49.708Z,18.10
2018-08-21T02:30:49.696Z,18.01
2018-08-21T02:31:49.743Z,18.04
2018-08-21T02:32:49.678Z,17.98
2018-08-21T02:33:49.666Z,17.95
2018-08-21T02:34:49.656Z,17.80
2018-08-21T02:35:49.646Z,17.84
2018-08-21T02:36:49.637Z,17.70
2018-08-21T02:37:49.625Z,17.73
2018-08-21T02:38:49.616Z,17.73
2018-08-21T02:39:49.607Z,17.81
2018-08-21T02:40:49.599Z,17.80
2018-08-21T02:41:49.585Z,17.87
2018-08-21T02:42:49.576Z,17.86
2018-08-21T02:43:49.567Z,17.84
2018-08-21T02:44:49.657Z,17.83
2018-08-21T02:45:49.545Z,17.83
2018-08-21T02:46:49.536Z,17.84
2018-08-21T02:47:49.527Z,17.94
2018-08-21T02:48:49.603Z,17.89
2018-08-21T02:49:49.506Z,17.95
2018-08-21T02:50:49.496Z,17.91
2018-08-21T02:51:49.486Z,17.71
2018-08-21T02:52:49.475Z,17.74
2018-08-21T02:53:49.465Z,17.73
2018-08-21T02:54:49.456Z,17.74
2018-08-21T02:55:49.446Z,17.65
2018-08-21T02:56:49.438Z,17.66
2018-08-21T02:57:49.430Z,17.68
2018-08-21T02:58:49.415Z,17.76
2018-08-21T02:59:49.405Z,17.74
2018-08-21T03:00:49.397Z,17.65
2018-08-21T03:01:49.385Z,17.66
2018-08-21T03:02:49.374Z,17.55
2018-08-21T03:03:49.364Z,17.74
2018-08-21T03:04:49.355Z,17.76
2018-08-21T03:05:49.344Z,17.77
2018-08-21T03:06:49.334Z,17.74
2018-08-21T03:07:49.323Z,17.70
2018-08-21T03:08:49.316Z,17.74
2018-08-21T03:09:49.303Z,17.76
2018-08-21T03:10:49.293Z,17.68
2018-08-21T03:11:49.292Z,17.66
2018-08-21T03:12:49.272Z,17.63
2018-08-21T03:13:49.261Z,17.58
2018-08-21T03:14:49.251Z,17.58
2018-08-21T03:15:49.244Z,17.65
2018-08-21T03:16:49.232Z,17.58
2018-08-21T03:17:49.221Z,17.55
2018-08-21T03:18:49.210Z,17.62
2018-08-21T03:19:49.200Z,17.55
2018-08-21T03:20:49.189Z,17.55
2018-08-21T03:21:49.306Z,17.53
2018-08-21T03:22:49.170Z,17.43
2018-08-21T03:23:49.159Z,17.43
2018-08-21T03:24:49.149Z,17.39
2018-08-21T03:25:49.139Z,17.39
2018-08-21T03:26:49.130Z,17.38
2018-08-21T03:27:49.118Z,17.45
2018-08-21T03:28:49.110Z,17.47
2018-08-21T03:29:49.097Z,17.45
2018-08-21T03:30:49.086Z,17.42
2018-08-21T03:31:49.077Z,17.46
2018-08-21T03:32:49.067Z,17.43
2018-08-21T03:33:49.058Z,17.40
2018-08-21T03:34:49.044Z,17.25
2018-08-21T03:35:49.036Z,17.27
2018-08-21T03:36:49.023Z,17.36
2018-08-21T03:37:49.013Z,17.30
2018-08-21T03:38:49.002Z,17.33
2018-08-21T03:39:48.991Z,17.18
2018-08-21T03:40:48.984Z,17.28
2018-08-21T03:41:48.970Z,17.32
2018-08-21T03:42:48.959Z,17.25
2018-08-21T03:43:48.950Z,17.38
2018-08-21T03:44:49.039Z,17.32
2018-08-21T03:45:48.932Z,17.33
2018-08-21T03:46:48.918Z,17.33
2018-08-21T03:47:48.908Z,17.28
2018-08-21T03:48:48.897Z,17.36
2018-08-21T03:49:48.886Z,17.32
2018-08-21T03:50:48.879Z,17.28
2018-08-21T03:51:48.866Z,17.20
2018-08-21T03:52:48.855Z,17.14
2018-08-21T03:53:48.844Z,17.14
2018-08-21T03:54:48.835Z,17.12
2018-08-21T03:55:48.823Z,17.14
2018-08-21T03:56:48.813Z,17.15
2018-08-21T03:57:48.804Z,17.12
2018-08-21T03:58:48.791Z,17.12
2018-08-21T03:59:48.780Z,17.02
2018-08-21T04:00:48.770Z,17.00
2018-08-21T04:01:48.759Z,16.96
2018-08-21T04:02:48.747Z,16.84
2018-08-21T04:03:48.737Z,16.92
2018-08-21T04:04:48.727Z,16.91
2018-08-21T04:05:48.716Z,16.82
2018-08-21T04:06:48.704Z,16.84
2018-08-21T04:07:48.695Z,16.90
2018-08-21T04:08:48.776Z,16.82
2018-08-21T04:09:48.666Z,16.88
2018-08-21T04:10:48.679Z,16.85
2018-08-21T04:11:48.640Z,16.92
2018-08-21T04:12:48.631Z,16.99
2018-08-21T04:13:48.622Z,16.85
2018-08-21T04:14:48.609Z,16.82
2018-08-21T04:15:48.608Z,16.87
2018-08-21T04:16:48.590Z,16.91
2018-08-21T04:17:48.576Z,16.85
2018-08-21T04:18:48.566Z,16.82
2018-08-21T04:19:48.555Z,16.88
2018-08-21T04:20:48.645Z,16.82
2018-08-21T04:21:48.532Z,16.91
2018-08-21T04:22:48.522Z,16.84
2018-08-21T04:23:48.512Z,16.87
2018-08-21T04:24:48.502Z,16.87
2018-08-21T04:25:48.490Z,16.85
2018-08-21T04:26:48.478Z,16.80
2018-08-21T04:27:48.468Z,16.81
2018-08-21T04:28:48.458Z,16.88
2018-08-21T04:29:48.446Z,16.80
2018-08-21T04:30:48.435Z,16.78
2018-08-21T04:31:48.425Z,16.73
2018-08-21T04:32:48.554Z,16.80
2018-08-21T04:33:48.402Z,16.81
2018-08-21T04:34:48.391Z,16.69
2018-08-21T04:35:48.382Z,16.75
2018-08-21T04:36:48.372Z,16.75
2018-08-21T04:37:48.359Z,16.77
2018-08-21T04:38:48.348Z,16.80
2018-08-21T04:39:48.336Z,16.84
2018-08-21T04:40:48.329Z,16.67
2018-08-21T04:41:48.314Z,16.63
2018-08-21T04:42:48.304Z,16.57
2018-08-21T04:43:48.293Z,16.59
2018-08-21T04:44:48.282Z,16.57
2018-08-21T04:45:48.271Z,16.50
2018-08-21T04:46:48.260Z,16.42
2018-08-21T04:47:48.254Z,16.45
2018-08-21T04:48:48.238Z,16.47
2018-08-21T04:49:48.226Z,16.45
2018-08-21T04:50:48.366Z,16.41
2018-08-21T04:51:48.207Z,16.32
2018-08-21T04:52:48.194Z,16.26
2018-08-21T04:53:48.181Z,16.11
2018-08-21T04:54:48.170Z,16.13
2018-08-21T04:55:48.159Z,16.10
2018-08-21T04:56:48.148Z,15.96
2018-08-21T04:57:48.136Z,15.99
2018-08-21T04:58:48.139Z,15.85
2018-08-21T04:59:48.114Z,15.91
2018-08-21T05:00:48.102Z,15.91
2018-08-21T05:01:48.089Z,15.93
2018-08-21T05:02:48.234Z,15.99
2018-08-21T05:03:48.068Z,15.89
2018-08-21T05:04:48.055Z,15.92
2018-08-21T05:05:48.097Z,15.84
2018-08-21T05:06:48.032Z,15.78
2018-08-21T05:07:48.020Z,15.77
2018-08-21T05:08:48.009Z,15.78
2018-08-21T05:09:47.997Z,15.80
2018-08-21T05:10:47.985Z,15.85
2018-08-21T05:11:47.973Z,15.86
2018-08-21T05:12:47.967Z,15.81
2018-08-21T05:13:47.950Z,15.76
2018-08-21T05:14:48.038Z,15.84
2018-08-21T05:15:47.927Z,15.84
2018-08-21T05:16:47.913Z,15.76
2018-08-21T05:17:47.902Z,15.92
2018-08-21T05:18:47.891Z,15.85
2018-08-21T05:19:47.881Z,15.80
2018-08-21T05:20:48.018Z,15.74
2018-08-21T05:21:47.857Z,15.68
2018-08-21T05:22:47.845Z,15.66
2018-08-21T05:23:47.833Z,15.67
2018-08-21T05:24:47.822Z,15.51
2018-08-21T05:25:47.810Z,15.64
2018-08-21T05:26:47.796Z,15.53
2018-08-21T05:27:47.786Z,15.66
2018-08-21T05:28:47.780Z,15.49
2018-08-21T05:29:47.765Z,15.64
2018-08-21T05:30:47.750Z,15.55
2018-08-21T05:31:47.738Z,15.58
2018-08-21T05:32:47.726Z,15.53
2018-08-21T05:33:47.713Z,15.59
2018-08-21T05:34:47.704Z,15.60
2018-08-21T05:35:47.690Z,15.66
2018-08-21T05:36:47.680Z,15.62
2018-08-21T05:37:47.667Z,15.58
2018-08-21T05:38:47.656Z,15.66
2018-08-21T05:39:47.644Z,15.58
2018-08-21T05:40:47.632Z,15.59
2018-08-21T05:41:47.620Z,15.56
2018-08-21T05:42:47.612Z,15.59
2018-08-21T05:43:47.648Z,15.59
2018-08-21T05:44:47.588Z,15.67
2018-08-21T05:45:47.575Z,15.59
2018-08-21T05:46:47.561Z,15.53
2018-08-21T05:47:47.549Z,15.52
2018-08-21T05:48:47.537Z,15.56
2018-08-21T05:49:47.525Z,15.62
2018-08-21T05:50:47.614Z,15.62
2018-08-21T05:51:47.500Z,15.67
2018-08-21T05:52:47.492Z,15.59
2018-08-21T05:53:47.477Z,15.59
2018-08-21T05:54:47.466Z,15.44
2018-08-21T05:55:47.501Z,15.44
2018-08-21T05:56:47.443Z,15.40
2018-08-21T05:57:47.433Z,15.41
2018-08-21T05:58:47.417Z,15.48
2018-08-21T05:59:47.407Z,15.52
2018-08-21T06:00:47.394Z,15.44
2018-08-21T06:01:47.383Z,15.53
2018-08-21T06:02:47.369Z,15.60
2018-08-21T06:03:47.359Z,15.46
2018-08-21T06:04:47.346Z,15.44
2018-08-21T06:05:47.335Z,15.43
2018-08-21T06:06:47.322Z,15.49
2018-08-21T06:07:47.312Z,15.58
2018-08-21T06:08:47.298Z,15.60
2018-08-21T06:09:47.287Z,15.55
2018-08-21T06:10:47.277Z,15.59
2018-08-21T06:11:47.264Z,15.52
2018-08-21T06:12:47.254Z,15.62
2018-08-21T06:13:47.239Z,15.66
2018-08-21T06:14:47.328Z,15.67
2018-08-21T06:15:47.219Z,15.64
2018-08-21T06:16:47.206Z,15.67
2018-08-21T06:17:47.192Z,15.60
2018-08-21T06:18:47.182Z,15.55
2018-08-21T06:19:47.169Z,15.59
2018-08-21T06:20:47.159Z,15.52
2018-08-21T06:21:47.144Z,15.43
2018-08-21T06:22:47.134Z,15.48
2018-08-21T06:23:47.122Z,15.48
2018-08-21T06:24:47.154Z,15.43
2018-08-21T06:25:47.096Z,15.56
2018-08-21T06:26:47.235Z,15.62
2018-08-21T06:27:47.075Z,15.51
2018-08-21T06:28:47.063Z,15.59
2018-08-21T06:29:47.049Z,15.56
2018-08-21T06:30:47.038Z,15.59
2018-08-21T06:31:47.028Z,15.52
2018-08-21T06:32:47.165Z,15.70
2018-08-21T06:33:47.002Z,15.62
2018-08-21T06:34:46.991Z,15.64
2018-08-21T06:35:46.979Z,15.58
2018-08-21T06:36:46.967Z,15.56
2018-08-21T06:37:46.956Z,15.60
2018-08-21T06:38:47.069Z,15.46
2018-08-21T06:39:47.006Z,15.49
2018-08-21T06:40:46.920Z,15.55
2018-08-21T06:41:46.906Z,15.62
2018-08-21T06:42:46.896Z,15.70
2018-08-21T06:43:46.886Z,15.64
2018-08-21T06:44:47.024Z,15.60
2018-08-21T06:45:46.862Z,15.56
2018-08-21T06:46:46.850Z,15.51
2018-08-21T06:47:46.836Z,15.46
2018-08-21T06:48:46.824Z,15.44
2018-08-21T06:49:46.814Z,15.52
2018-08-21T06:50:46.900Z,15.44
2018-08-21T06:51:46.789Z,15.51
2018-08-21T06:52:46.777Z,15.48
2018-08-21T06:53:46.774Z,15.43
2018-08-21T06:54:46.755Z,15.38
2018-08-21T06:55:46.742Z,15.46
2018-08-21T06:56:46.731Z,15.46
2018-08-21T06:57:46.718Z,15.48
2018-08-21T06:58:46.707Z,15.51
2018-08-21T06:59:46.696Z,15.43
2018-08-21T07:00:46.682Z,15.37
2018-08-21T07:01:46.670Z,15.37
2018-08-21T07:02:46.658Z,15.40
2018-08-21T07:03:46.646Z,15.34
2018-08-21T07:04:46.635Z,15.48
2018-08-21T07:05:46.621Z,15.40
2018-08-21T07:06:46.610Z,15.37
2018-08-21T07:07:46.599Z,15.46
2018-08-21T07:08:46.686Z,15.37
2018-08-21T07:09:46.575Z,15.41
2018-08-21T07:10:46.562Z,15.41
2018-08-21T07:11:46.555Z,15.34
2018-08-21T07:12:46.540Z,15.35
2018-08-21T07:13:46.528Z,15.40
2018-08-21T07:14:46.515Z,15.51
2018-08-21T07:15:46.503Z,15.34
2018-08-21T07:16:46.492Z,15.48
2018-08-21T07:17:46.477Z,15.34
2018-08-21T07:18:46.467Z,15.40
2018-08-21T07:19:46.455Z,15.34
2018-08-21T07:20:46.444Z,15.31
2018-08-21T07:21:46.437Z,15.28
2018-08-21T07:22:46.419Z,15.20
2018-08-21T07:23:46.408Z,15.12
2018-08-21T07:24:46.396Z,15.07
2018-08-21T07:25:46.383Z,15.09
2018-08-21T07:26:46.372Z,15.15
2018-08-21T07:27:46.358Z,15.09
2018-08-21T07:28:46.347Z,15.16
2018-08-21T07:29:46.334Z,15.22
2018-08-21T07:30:46.324Z,15.20
2018-08-21T07:31:46.311Z,15.15
2018-08-21T07:32:46.400Z,15.05
2018-08-21T07:33:46.285Z,15.05
2018-08-21T07:34:46.275Z,14.98
2018-08-21T07:35:46.293Z,14.97
2018-08-21T07:36:46.248Z,14.98
2018-08-21T07:37:46.236Z,14.94
2018-08-21T07:38:46.374Z,14.93
2018-08-21T07:39:46.213Z,14.82
2018-08-21T07:40:46.200Z,14.79
2018-08-21T07:41:46.194Z,14.72
2018-08-21T07:42:46.175Z,14.71
2018-08-21T07:43:46.181Z,14.78
2018-08-21T07:44:46.151Z,14.80
2018-08-21T07:45:46.137Z,14.83
2018-08-21T07:46:46.127Z,14.93
2018-08-21T07:47:46.139Z,14.86
2018-08-21T07:48:46.101Z,14.79
2018-08-21T07:49:46.089Z,14.91
2018-08-21T07:50:46.076Z,14.91
2018-08-21T07:51:46.062Z,14.80
2018-08-21T07:52:46.051Z,14.83
2018-08-21T07:53:46.053Z,14.87
2018-08-21T07:54:46.030Z,14.83
2018-08-21T07:55:46.013Z,14.95
2018-08-21T07:56:46.002Z,15.04
2018-08-21T07:57:45.986Z,15.07
2018-08-21T07:58:45.974Z,15.16
2018-08-21T07:59:45.963Z,15.12
2018-08-21T08:00:45.950Z,15.15
2018-08-21T08:01:45.938Z,15.12
2018-08-21T08:02:46.026Z,15.12
2018-08-21T08:03:45.922Z,15.19
2018-08-21T08:04:45.902Z,15.11
2018-08-21T08:05:45.889Z,15.07
2018-08-21T08:06:45.877Z,15.04
2018-08-21T08:07:45.866Z,15.03
2018-08-21T08:08:46.017Z,15.03
2018-08-21T08:09:45.854Z,15.07
2018-08-21T08:10:45.827Z,15.09
2018-08-21T08:11:45.816Z,15.03
2018-08-21T08:12:45.804Z,15.09
2018-08-21T08:13:45.823Z,15.05
2018-08-21T08:14:45.880Z,15.09
2018-08-21T08:15:45.767Z,15.13
2018-08-21T08:16:45.755Z,15.09
2018-08-21T08:17:45.742Z,15.12
2018-08-21T08:18:45.730Z,15.20
2018-08-21T08:19:45.718Z,15.20
2018-08-21T08:20:45.909Z,15.19
2018-08-21T08:21:45.693Z,15.16
2018-08-21T08:22:45.681Z,15.19
2018-08-21T08:23:45.669Z,15.18
2018-08-21T08:24:45.659Z,15.27
2018-08-21T08:25:45.644Z,15.20
2018-08-21T08:26:45.732Z,15.13
2018-08-21T08:27:45.619Z,15.30
2018-08-21T08:28:45.609Z,15.27
2018-08-21T08:29:45.600Z,15.28
2018-08-21T08:30:45.587Z,15.28
2018-08-21T08:31:45.572Z,15.27
2018-08-21T08:32:45.561Z,15.20
2018-08-21T08:33:45.604Z,15.34
2018-08-21T08:34:45.540Z,15.27
2018-08-21T08:35:45.577Z,15.23
2018-08-21T08:36:45.513Z,15.27
2018-08-21T08:37:45.554Z,15.35
2018-08-21T08:38:45.486Z,15.44
2018-08-21T08:39:45.476Z,15.46
2018-08-21T08:40:45.463Z,15.52
2018-08-21T08:41:45.534Z,15.43
2018-08-21T08:42:45.439Z,15.40
2018-08-21T08:43:45.428Z,15.33
2018-08-21T08:44:45.416Z,15.41
2018-08-21T08:45:45.404Z,15.37
2018-08-21T08:46:45.392Z,15.34
2018-08-21T08:47:45.465Z,15.40
2018-08-21T08:48:45.367Z,15.41
2018-08-21T08:49:45.356Z,15.46
2018-08-21T08:50:45.495Z,15.44
2018-08-21T08:51:45.332Z,15.49
2018-08-21T08:52:45.321Z,15.51
2018-08-21T08:53:45.309Z,15.38
2018-08-21T08:54:45.297Z,15.48
2018-08-21T08:55:45.288Z,15.44
2018-08-21T08:56:45.272Z,15.35
2018-08-21T08:57:45.261Z,15.38
2018-08-21T08:58:45.249Z,15.48
2018-08-21T08:59:45.236Z,15.49
2018-08-21T09:00:45.226Z,15.49
2018-08-21T09:01:45.212Z,15.44
2018-08-21T09:02:45.202Z,15.49
2018-08-21T09:03:45.190Z,15.51
2018-08-21T09:04:45.239Z,15.43
2018-08-21T09:05:45.166Z,15.48
2018-08-21T09:06:45.155Z,15.49
2018-08-21T09:07:45.143Z,15.49
2018-08-21T09:08:45.133Z,15.43
2018-08-21T09:09:45.117Z,15.49
2018-08-21T09:10:45.107Z,15.48
2018-08-21T09:11:45.096Z,15.43
2018-08-21T09:12:45.082Z,15.35
2018-08-21T09:13:45.071Z,15.37
2018-08-21T09:14:45.058Z,15.44
2018-08-21T09:15:45.050Z,15.35
2018-08-21T09:16:45.036Z,15.44
2018-08-21T09:17:45.024Z,15.38
2018-08-21T09:18:45.015Z,15.38
2018-08-21T09:19:45.004Z,15.43
2018-08-21T09:20:44.989Z,15.52
2018-08-21T09:21:44.975Z,15.41
2018-08-21T09:22:44.965Z,15.44
2018-08-21T09:23:44.952Z,15.48
2018-08-21T09:24:44.943Z,15.44
2018-08-21T09:25:44.929Z,15.55
2018-08-21T09:26:44.917Z,15.38
2018-08-21T09:27:44.906Z,15.41
2018-08-21T09:28:44.895Z,15.40
2018-08-21T09:29:44.882Z,15.52
2018-08-21T09:30:44.870Z,15.38
2018-08-21T09:31:44.861Z,15.49
2018-08-21T09:32:44.848Z,15.56
2018-08-21T09:33:44.835Z,15.58
2018-08-21T09:34:44.822Z,15.44
2018-08-21T09:35:44.812Z,15.53
2018-08-21T09:36:44.799Z,15.53
2018-08-21T09:37:44.788Z,15.56
2018-08-21T09:38:44.875Z,15.46
2018-08-21T09:39:44.763Z,15.46
2018-08-21T09:40:44.752Z,15.53
2018-08-21T09:41:44.739Z,15.55
2018-08-21T09:42:44.727Z,15.67
2018-08-21T09:43:44.720Z,15.66
2018-08-21T09:44:44.704Z,15.70
2018-08-21T09:45:44.693Z,15.70
2018-08-21T09:46:44.681Z,15.74
2018-08-21T09:47:44.669Z,15.80
2018-08-21T09:48:44.657Z,15.85
2018-08-21T09:49:44.646Z,15.76
2018-08-21T09:50:44.633Z,15.68
2018-08-21T09:51:44.627Z,15.80
2018-08-21T09:52:44.610Z,15.88
2018-08-21T09:53:44.599Z,15.92
2018-08-21T09:54:44.589Z,15.86
2018-08-21T09:55:44.575Z,15.89
2018-08-21T09:56:44.564Z,15.89
2018-08-21T09:57:44.551Z,15.88
2018-08-21T09:58:44.540Z,15.84
2018-08-21T09:59:44.530Z,15.85
2018-08-21T10:00:44.521Z,15.88
2018-08-21T10:01:44.505Z,15.93
2018-08-21T10:02:44.495Z,15.96
2018-08-21T10:03:44.482Z,16.01
2018-08-21T10:04:44.473Z,15.98
2018-08-21T10:05:44.460Z,15.95
2018-08-21T10:06:44.462Z,15.98
2018-08-21T10:07:44.438Z,16.16
2018-08-21T10:08:44.527Z,16.14
2018-08-21T10:09:44.414Z,16.16
2018-08-21T10:10:44.402Z,16.17
2018-08-21T10:11:44.391Z,16.10
2018-08-21T10:12:44.382Z,16.16
2018-08-21T10:13:44.369Z,16.17
2018-08-21T10:14:44.356Z,16.25
2018-08-21T10:15:44.346Z,16.32
2018-08-21T10:16:44.336Z,16.32
2018-08-21T10:17:44.324Z,16.32
2018-08-21T10:18:44.313Z,16.32
2018-08-21T10:19:44.302Z,16.32
2018-08-21T10:20:44.289Z,16.42
2018-08-21T10:21:44.279Z,16.48
2018-08-21T10:22:44.268Z,16.54
2018-08-21T10:23:44.259Z,16.52
2018-08-21T10:24:44.247Z,16.51
2018-08-21T10:25:44.234Z,16.62
2018-08-21T10:26:44.323Z,16.59
2018-08-21T10:27:44.213Z,16.67
2018-08-21T10:28:44.202Z,16.70
2018-08-21T10:29:44.194Z,16.81
2018-08-21T10:30:44.180Z,16.87
2018-08-21T10:31:44.169Z,16.87
2018-08-21T10:32:44.159Z,16.85
2018-08-21T10:33:44.148Z,16.92
2018-08-21T10:34:44.159Z,17.00
2018-08-21T10:35:44.125Z,17.06
2018-08-21T10:36:44.115Z,17.10
2018-08-21T10:37:44.105Z,17.06
2018-08-21T10:38:44.093Z,17.10
2018-08-21T10:39:44.083Z,17.14
2018-08-21T10:40:44.074Z,17.18
2018-08-21T10:41:44.062Z,17.24
2018-08-21T10:42:44.051Z,17.18
2018-08-21T10:43:44.042Z,17.18
2018-08-21T10:44:44.032Z,17.21
2018-08-21T10:45:44.020Z,17.21
2018-08-21T10:46:44.011Z,17.22
2018-08-21T10:47:44.001Z,17.35
2018-08-21T10:48:43.992Z,17.36
2018-08-21T10:49:43.979Z,17.40
2018-08-21T10:50:44.120Z,17.42
2018-08-21T10:51:43.991Z,17.43
2018-08-21T10:52:43.948Z,17.43
2018-08-21T10:53:43.938Z,17.45
2018-08-21T10:54:43.927Z,17.47
2018-08-21T10:55:43.920Z,17.51
2018-08-21T10:56:43.908Z,17.49
2018-08-21T10:57:43.897Z,17.47
2018-08-21T10:58:43.888Z,17.63
2018-08-21T10:59:43.877Z,17.74
2018-08-21T11:00:43.867Z,17.76
2018-08-21T11:01:43.856Z,17.74
2018-08-21T11:02:43.847Z,17.71
2018-08-21T11:03:43.836Z,17.76
2018-08-21T11:04:43.827Z,17.76
2018-08-21T11:05:43.815Z,17.68
2018-08-21T11:06:43.806Z,17.77
2018-08-21T11:07:43.797Z,17.80
2018-08-21T11:08:43.786Z,17.83
2018-08-21T11:09:43.777Z,17.89
2018-08-21T11:10:43.765Z,18.01
2018-08-21T11:11:43.760Z,17.91
2018-08-21T11:12:43.747Z,17.91
2018-08-21T11:13:43.737Z,17.98
2018-08-21T11:14:43.728Z,18.01
2018-08-21T11:15:43.717Z,18.01
2018-08-21T11:16:43.706Z,17.96
2018-08-21T11:17:43.696Z,18.13
2018-08-21T11:18:43.687Z,18.11
2018-08-21T11:19:43.678Z,18.10
2018-08-21T11:20:43.819Z,18.16
2018-08-21T11:21:43.657Z,18.19
2018-08-21T11:22:43.649Z,18.23
2018-08-21T11:23:43.638Z,18.19
2018-08-21T11:24:43.632Z,18.34
2018-08-21T11:25:43.619Z,18.29
2018-08-21T11:26:43.609Z,18.35
2018-08-21T11:27:43.601Z,18.34
2018-08-21T11:28:43.591Z,18.38
2018-08-21T11:29:43.629Z,18.42
2018-08-21T11:30:43.571Z,18.39
2018-08-21T11:31:43.563Z,18.39
2018-08-21T11:32:43.552Z,18.53
2018-08-21T11:33:43.541Z,18.66
2018-08-21T11:34:43.532Z,18.65
2018-08-21T11:35:43.522Z,18.65
2018-08-21T11:36:43.515Z,18.66
2018-08-21T11:37:43.503Z,18.71
2018-08-21T11:38:43.494Z,18.78
2018-08-21T11:39:43.486Z,18.83
2018-08-21T11:40:43.475Z,18.84
2018-08-21T11:41:43.466Z,18.89
2018-08-21T11:42:43.456Z,18.97
2018-08-21T11:43:43.448Z,19.07
2018-08-21T11:44:43.439Z,19.16
2018-08-21T11:45:43.429Z,19.20
2018-08-21T11:46:43.421Z,19.32
2018-08-21T11:47:43.411Z,19.42
2018-08-21T11:48:43.402Z,19.71
2018-08-21T11:49:43.393Z,19.79
2018-08-21T11:50:43.383Z,19.79
2018-08-21T11:51:43.376Z,20.00
2018-08-21T11:52:43.367Z,19.92
2018-08-21T11:53:43.359Z,20.16
2018-08-21T11:54:43.350Z,20.46
2018-08-21T11:55:43.344Z,20.54
2018-08-21T11:56:43.333Z,20.72
2018-08-21T11:57:43.324Z,20.88
2018-08-21T11:58:43.316Z,20.93
2018-08-21T11:59:43.309Z,21.00
2018-08-21T12:00:43.301Z,21.19
2018-08-21T12:01:43.291Z,21.30
2018-08-21T12:02:43.282Z,21.43
2018-08-21T12:03:43.276Z,21.55
2018-08-21T12:04:43.269Z,21.79
2018-08-21T12:05:43.261Z,21.77
2018-08-21T12:06:43.255Z,21.91
2018-08-21T12:07:43.248Z,22.14
2018-08-21T12:08:43.238Z,22.29
2018-08-21T12:09:43.230Z,22.35
2018-08-21T12:10:43.223Z,22.60
2018-08-21T12:11:43.216Z,22.72
2018-08-21T12:12:43.210Z,22.69
2018-08-21T12:13:43.200Z,22.82
2018-08-21T12:14:43.206Z,22.70
2018-08-21T12:15:43.186Z,22.76
2018-08-21T12:16:43.181Z,22.76
2018-08-21T12:17:43.174Z,22.81
2018-08-21T12:18:43.167Z,22.97
2018-08-21T12:19:43.161Z,23.03
2018-08-21T12:20:43.155Z,23.77
2018-08-21T12:21:43.150Z,23.53
2018-08-21T12:22:43.141Z,23.49
2018-08-21T12:23:43.148Z,23.47
2018-08-21T12:24:43.128Z,23.59
2018-08-21T12:25:43.122Z,23.74
2018-08-21T12:26:43.115Z,23.72
2018-08-21T12:27:43.110Z,23.67
2018-08-21T12:28:43.102Z,23.56
2018-08-21T12:29:43.105Z,23.72
2018-08-21T12:30:43.091Z,23.79
2018-08-21T12:31:43.085Z,23.84
2018-08-21T12:32:43.080Z,23.90
2018-08-21T12:33:43.072Z,24.04
2018-08-21T12:34:43.069Z,24.00
2018-08-21T12:35:43.062Z,24.11
2018-08-21T12:36:43.076Z,24.18
2018-08-21T12:37:43.050Z,24.26
2018-08-21T12:38:43.047Z,24.36
2018-08-21T12:39:43.038Z,24.26
2018-08-21T12:40:43.034Z,24.39
2018-08-21T12:41:43.026Z,24.48
2018-08-21T12:42:43.021Z,24.59
2018-08-21T12:43:43.018Z,24.68
2018-08-21T12:44:43.012Z,24.79
2018-08-21T12:45:43.005Z,24.84
2018-08-21T12:46:43.001Z,24.77
2018-08-21T12:47:42.997Z,24.53
2018-08-21T12:48:42.991Z,24.64
2018-08-21T12:49:42.988Z,24.67
2018-08-21T12:50:42.980Z,24.74
2018-08-21T12:51:42.975Z,24.83
2018-08-21T12:52:42.971Z,24.99